N240AT SPJC-SPQU
Flight info
| Callsign | N240AT |
|---|---|
| Flight time | 1h 10m |
| Altitude | 36000 |
| Route | SPJC/16L PAKOL5 AKSOL UT222 ASUPA ASUPA1B SPQU/10 |
| Aircraft | B738/M-V/N |
Departure
| Time | 2026-04-23 04:00 |
|---|---|
| Airport | Jorge Chávez International Airport (SPJC) |
Arrival
| Time | 2026-04-23 05:10 |
|---|---|
| Airport | Rodríguez Ballón International Airport (SPQU) |
| Time | Latitude | Longitude | Altitude | Speed | Heading |
|---|---|---|---|---|---|
| 2026-04-23 03:30 | -12.01814 | -77.11342 | 127 ft | 0 kts | 136° |
| 2026-04-23 03:56 | -12.01816 | -77.11340 | 127 ft | 3 kts | 136° |
| 2026-04-23 03:56 | -12.01825 | -77.11334 | 127 ft | 0 kts | 149° |
| 2026-04-23 03:56 | -12.01843 | -77.11327 | 127 ft | 0 kts | 184° |
| 2026-04-23 03:57 | -12.01845 | -77.11399 | 127 ft | 32 kts | 338° |
| 2026-04-23 03:57 | -12.01573 | -77.11527 | 127 ft | 48 kts | 334° |
| 2026-04-23 03:57 | -12.01257 | -77.11683 | 127 ft | 54 kts | 334° |
| 2026-04-23 03:58 | -12.00889 | -77.11863 | 127 ft | 62 kts | 335° |
| 2026-04-23 03:58 | -12.00679 | -77.12024 | 127 ft | 25 kts | 255° |
| 2026-04-23 03:58 | -12.00806 | -77.12106 | 127 ft | 18 kts | 173° |
| 2026-04-23 03:58 | -12.00831 | -77.12100 | 127 ft | 0 kts | 158° |
| 2026-04-23 03:59 | -12.00834 | -77.12099 | 127 ft | 3 kts | 158° |
| 2026-04-23 03:59 | -12.01056 | -77.11990 | 127 ft | 77 kts | 154° |
| 2026-04-23 04:00 | -12.01792 | -77.11629 | 129 ft | 154 kts | 154° |
| 2026-04-23 04:00 | -12.02852 | -77.11135 | 671 ft | 173 kts | 157° |
| 2026-04-23 04:00 | -12.03966 | -77.10624 | 1391 ft | 185 kts | 153° |
| 2026-04-23 04:00 | -12.05168 | -77.10021 | 2124 ft | 203 kts | 153° |
| 2026-04-23 04:01 | -12.06449 | -77.09378 | 3007 ft | 213 kts | 152° |
| 2026-04-23 04:01 | -12.07830 | -77.08681 | 3731 ft | 237 kts | 153° |
| 2026-04-23 04:01 | -12.09365 | -77.07931 | 4366 ft | 251 kts | 153° |
| 2026-04-23 04:01 | -12.11003 | -77.07103 | 4675 ft | 270 kts | 153° |
| 2026-04-23 04:02 | -12.12694 | -77.06263 | 4750 ft | 266 kts | 153° |
| 2026-04-23 04:02 | -12.14349 | -77.05437 | 4912 ft | 264 kts | 153° |
| 2026-04-23 04:02 | -12.15988 | -77.04621 | 5035 ft | 264 kts | 153° |
| 2026-04-23 04:02 | -12.17650 | -77.03801 | 5173 ft | 263 kts | 153° |
| 2026-04-23 04:03 | -12.19313 | -77.02979 | 5320 ft | 265 kts | 153° |
| 2026-04-23 04:03 | -12.20976 | -77.02158 | 5471 ft | 264 kts | 153° |
| 2026-04-23 04:03 | -12.22639 | -77.01336 | 5614 ft | 265 kts | 153° |
| 2026-04-23 04:03 | -12.24176 | -77.00265 | 5729 ft | 267 kts | 130° |
| 2026-04-23 04:04 | -12.25105 | -76.98653 | 5912 ft | 272 kts | 117° |
| 2026-04-23 04:04 | -12.25968 | -76.96901 | 6471 ft | 264 kts | 116° |
| 2026-04-23 04:04 | -12.26796 | -76.95197 | 6678 ft | 272 kts | 116° |
| 2026-04-23 04:04 | -12.27639 | -76.93452 | 6827 ft | 274 kts | 116° |
| 2026-04-23 04:05 | -12.28481 | -76.91708 | 6962 ft | 276 kts | 116° |
| 2026-04-23 04:05 | -12.29331 | -76.89947 | 7151 ft | 277 kts | 116° |
| 2026-04-23 04:05 | -12.30212 | -76.88121 | 7724 ft | 294 kts | 116° |
| 2026-04-23 04:05 | -12.31087 | -76.86309 | 8867 ft | 283 kts | 115° |
| 2026-04-23 04:06 | -12.31958 | -76.84503 | 9591 ft | 294 kts | 115° |
| 2026-04-23 04:06 | -12.32869 | -76.82614 | 10549 ft | 299 kts | 115° |
| 2026-04-23 04:06 | -12.33489 | -76.81330 | 11120 ft | 305 kts | 115° |
| 2026-04-23 04:06 | -12.34778 | -76.78648 | 11895 ft | 329 kts | 115° |
| 2026-04-23 04:07 | -12.35814 | -76.76501 | 12449 ft | 346 kts | 115° |
| 2026-04-23 04:07 | -12.36901 | -76.74249 | 13008 ft | 363 kts | 115° |
| 2026-04-23 04:07 | -12.38016 | -76.71932 | 13931 ft | 367 kts | 115° |
| 2026-04-23 04:07 | -12.39131 | -76.69620 | 15012 ft | 366 kts | 115° |
| 2026-04-23 04:08 | -12.40276 | -76.67239 | 15601 ft | 375 kts | 115° |
| 2026-04-23 04:08 | -12.41412 | -76.64877 | 16506 ft | 375 kts | 115° |
| 2026-04-23 04:08 | -12.42573 | -76.62470 | 17364 ft | 378 kts | 115° |
| 2026-04-23 04:08 | -12.43743 | -76.60059 | 17937 ft | 387 kts | 115° |
| 2026-04-23 04:09 | -12.44941 | -76.57587 | 18729 ft | 388 kts | 115° |
| 2026-04-23 04:09 | -12.46146 | -76.55103 | 19400 ft | 392 kts | 115° |
| 2026-04-23 04:09 | -12.46951 | -76.53440 | 19761 ft | 396 kts | 115° |
| 2026-04-23 04:09 | -12.48590 | -76.50056 | 20689 ft | 399 kts | 115° |
| 2026-04-23 04:10 | -12.49818 | -76.47520 | 21224 ft | 404 kts | 115° |
| 2026-04-23 04:10 | -12.51073 | -76.44926 | 21848 ft | 406 kts | 116° |
| 2026-04-23 04:10 | -12.52314 | -76.42366 | 22413 ft | 409 kts | 116° |
| 2026-04-23 04:10 | -12.53156 | -76.40623 | 22813 ft | 411 kts | 116° |
| 2026-04-23 04:11 | -12.54857 | -76.37104 | 23559 ft | 415 kts | 116° |
| 2026-04-23 04:11 | -12.56150 | -76.34431 | 24151 ft | 417 kts | 116° |
| 2026-04-23 04:11 | -12.57423 | -76.31796 | 24728 ft | 419 kts | 116° |
| 2026-04-23 04:11 | -12.58720 | -76.29111 | 25222 ft | 423 kts | 116° |
| 2026-04-23 04:12 | -12.60021 | -76.26420 | 25772 ft | 424 kts | 117° |
| 2026-04-23 04:12 | -12.61334 | -76.23701 | 26255 ft | 428 kts | 117° |
| 2026-04-23 04:12 | -12.62653 | -76.20968 | 26767 ft | 429 kts | 117° |
| 2026-04-23 04:12 | -12.63978 | -76.18227 | 27272 ft | 431 kts | 117° |
| 2026-04-23 04:13 | -12.65310 | -76.15467 | 27644 ft | 436 kts | 117° |
| 2026-04-23 04:13 | -12.66642 | -76.12700 | 28170 ft | 436 kts | 117° |
| 2026-04-23 04:13 | -12.68004 | -76.09877 | 28620 ft | 438 kts | 117° |
| 2026-04-23 04:13 | -12.69347 | -76.07098 | 28994 ft | 442 kts | 117° |
| 2026-04-23 04:14 | -12.70705 | -76.04290 | 29608 ft | 439 kts | 117° |
| 2026-04-23 04:14 | -12.72066 | -76.01465 | 30092 ft | 440 kts | 116° |
| 2026-04-23 04:14 | -12.73538 | -75.98740 | 30451 ft | 442 kts | 127° |
| 2026-04-23 04:14 | -12.75716 | -75.96515 | 30853 ft | 443 kts | 143° |
| 2026-04-23 04:15 | -12.78425 | -75.95015 | 31302 ft | 444 kts | 159° |
| 2026-04-23 04:15 | -12.81377 | -75.94007 | 31651 ft | 446 kts | 160° |
| 2026-04-23 04:15 | -12.87267 | -75.91991 | 32435 ft | 449 kts | 160° |
| 2026-04-23 04:16 | -12.90260 | -75.90962 | 32789 ft | 451 kts | 160° |
| 2026-04-23 04:16 | -12.93238 | -75.89939 | 33226 ft | 451 kts | 160° |
| 2026-04-23 04:16 | -12.96205 | -75.88924 | 33719 ft | 450 kts | 160° |
| 2026-04-23 04:16 | -12.99178 | -75.87901 | 34157 ft | 451 kts | 160° |
| 2026-04-23 04:17 | -13.02140 | -75.86882 | 34607 ft | 450 kts | 160° |
| 2026-04-23 04:17 | -13.05105 | -75.85863 | 35177 ft | 447 kts | 160° |
| 2026-04-23 04:17 | -13.08064 | -75.84847 | 35624 ft | 447 kts | 159° |
| 2026-04-23 04:17 | -13.11032 | -75.83824 | 35859 ft | 451 kts | 159° |
| 2026-04-23 04:18 | -13.14034 | -75.82789 | 36249 ft | 451 kts | 159° |
| 2026-04-23 04:18 | -13.17010 | -75.81767 | 36666 ft | 446 kts | 159° |
| 2026-04-23 04:18 | -13.19977 | -75.80746 | 36654 ft | 452 kts | 159° |
| 2026-04-23 04:19 | -13.26061 | -75.78648 | 36647 ft | 469 kts | 159° |
| 2026-04-23 04:19 | -13.32272 | -75.76327 | 36623 ft | 481 kts | 148° |
| 2026-04-23 04:19 | -13.34973 | -75.74297 | 36655 ft | 478 kts | 132° |
| 2026-04-23 04:20 | -13.37219 | -75.71775 | 36650 ft | 478 kts | 129° |
| 2026-04-23 04:20 | -13.41714 | -75.66826 | 36598 ft | 475 kts | 130° |
| 2026-04-23 04:21 | -13.46226 | -75.61917 | 36603 ft | 472 kts | 130° |
| 2026-04-23 04:21 | -13.50771 | -75.56979 | 36574 ft | 475 kts | 130° |
| 2026-04-23 04:22 | -13.55302 | -75.52051 | 36587 ft | 475 kts | 130° |
| 2026-04-23 04:22 | -13.59858 | -75.47102 | 36572 ft | 475 kts | 130° |
| 2026-04-23 04:23 | -13.64401 | -75.42154 | 36683 ft | 475 kts | 130° |
| 2026-04-23 04:23 | -13.68931 | -75.37218 | 36719 ft | 475 kts | 130° |
| 2026-04-23 04:24 | -13.73488 | -75.32252 | 36739 ft | 475 kts | 130° |
| 2026-04-23 04:24 | -13.78017 | -75.27316 | 36782 ft | 476 kts | 130° |
| 2026-04-23 04:25 | -13.82559 | -75.22355 | 36788 ft | 476 kts | 130° |
| 2026-04-23 04:25 | -13.86579 | -75.17970 | 36763 ft | 477 kts | 130° |
| 2026-04-23 04:26 | -13.90322 | -75.13879 | 36773 ft | 476 kts | 130° |
| 2026-04-23 04:26 | -13.94838 | -75.08944 | 36712 ft | 475 kts | 130° |
| 2026-04-23 04:27 | -13.99380 | -75.03979 | 36685 ft | 477 kts | 130° |
| 2026-04-23 04:27 | -14.03931 | -74.98998 | 36687 ft | 478 kts | 130° |
| 2026-04-23 04:28 | -14.10777 | -74.91501 | 36696 ft | 476 kts | 130° |
| 2026-04-23 04:28 | -14.15300 | -74.86546 | 36707 ft | 477 kts | 130° |
| 2026-04-23 04:29 | -14.19865 | -74.81538 | 36744 ft | 477 kts | 130° |
| 2026-04-23 04:29 | -14.24397 | -74.76566 | 36792 ft | 477 kts | 130° |
| 2026-04-23 04:30 | -14.28952 | -74.71564 | 36776 ft | 478 kts | 130° |
| 2026-04-23 04:30 | -14.33507 | -74.66558 | 36743 ft | 478 kts | 130° |
| 2026-04-23 04:31 | -14.38069 | -74.61545 | 36752 ft | 478 kts | 130° |
| 2026-04-23 04:31 | -14.42603 | -74.56555 | 36744 ft | 478 kts | 131° |
| 2026-04-23 04:32 | -14.47167 | -74.51536 | 36786 ft | 478 kts | 130° |
| 2026-04-23 04:32 | -14.51707 | -74.46530 | 36799 ft | 478 kts | 131° |
| 2026-04-23 04:33 | -14.56244 | -74.41531 | 36785 ft | 480 kts | 130° |
| 2026-04-23 04:33 | -14.60807 | -74.36497 | 36797 ft | 478 kts | 130° |
| 2026-04-23 04:34 | -14.65378 | -74.31451 | 36770 ft | 478 kts | 130° |
| 2026-04-23 04:34 | -14.69927 | -74.26431 | 36780 ft | 479 kts | 130° |
| 2026-04-23 04:35 | -14.74452 | -74.21429 | 36770 ft | 478 kts | 130° |
| 2026-04-23 04:35 | -14.78254 | -74.17226 | 36774 ft | 479 kts | 130° |
| 2026-04-23 04:36 | -14.82970 | -74.10909 | 36769 ft | 477 kts | 122° |
| 2026-04-23 04:36 | -14.86753 | -74.05281 | 36786 ft | 476 kts | 122° |
| 2026-04-23 04:37 | -14.90516 | -73.99697 | 36787 ft | 476 kts | 122° |
| 2026-04-23 04:37 | -14.94296 | -73.94081 | 36810 ft | 476 kts | 122° |
| 2026-04-23 04:38 | -14.98074 | -73.88467 | 36819 ft | 476 kts | 122° |
| 2026-04-23 04:38 | -15.01874 | -73.82816 | 36861 ft | 477 kts | 122° |
| 2026-04-23 04:39 | -15.05660 | -73.77183 | 36849 ft | 477 kts | 122° |
| 2026-04-23 04:39 | -15.09445 | -73.71549 | 36879 ft | 477 kts | 122° |
| 2026-04-23 04:40 | -15.13229 | -73.65912 | 36853 ft | 477 kts | 122° |
| 2026-04-23 04:40 | -15.17006 | -73.60278 | 36866 ft | 478 kts | 122° |
| 2026-04-23 04:41 | -15.20800 | -73.54620 | 36859 ft | 479 kts | 122° |
| 2026-04-23 04:41 | -15.24610 | -73.48929 | 36840 ft | 479 kts | 122° |
| 2026-04-23 04:42 | -15.28385 | -73.43290 | 36833 ft | 479 kts | 122° |
| 2026-04-23 04:42 | -15.32181 | -73.37609 | 36817 ft | 479 kts | 122° |
| 2026-04-23 04:43 | -15.35988 | -73.31917 | 36829 ft | 480 kts | 121° |
| 2026-04-23 04:43 | -15.39778 | -73.26236 | 36774 ft | 480 kts | 121° |
| 2026-04-23 04:44 | -15.43550 | -73.20582 | 36780 ft | 480 kts | 121° |
| 2026-04-23 04:44 | -15.47378 | -73.14844 | 36754 ft | 482 kts | 121° |
| 2026-04-23 04:45 | -15.51179 | -73.09136 | 36808 ft | 481 kts | 121° |
| 2026-04-23 04:45 | -15.54971 | -73.03439 | 36792 ft | 481 kts | 121° |
| 2026-04-23 04:46 | -15.58782 | -72.97715 | 36813 ft | 481 kts | 121° |
| 2026-04-23 04:46 | -15.62559 | -72.92030 | 36760 ft | 482 kts | 121° |
| 2026-04-23 04:47 | -15.66368 | -72.86294 | 36781 ft | 482 kts | 121° |
| 2026-04-23 04:47 | -15.70172 | -72.80564 | 36802 ft | 483 kts | 121° |
| 2026-04-23 04:48 | -15.73965 | -72.74846 | 36844 ft | 482 kts | 121° |
| 2026-04-23 04:48 | -15.77768 | -72.69103 | 36750 ft | 483 kts | 122° |
| 2026-04-23 04:49 | -15.81574 | -72.63356 | 36733 ft | 481 kts | 122° |
| 2026-04-23 04:49 | -15.85342 | -72.57663 | 36687 ft | 481 kts | 121° |
| 2026-04-23 04:50 | -15.89129 | -72.51935 | 36550 ft | 468 kts | 122° |
| 2026-04-23 04:50 | -15.90913 | -72.49238 | 36542 ft | 447 kts | 121° |
| 2026-04-23 04:50 | -15.92677 | -72.46563 | 36071 ft | 441 kts | 122° |
| 2026-04-23 04:51 | -15.94406 | -72.43938 | 35614 ft | 444 kts | 122° |
| 2026-04-23 04:51 | -15.96163 | -72.41280 | 35251 ft | 448 kts | 122° |
| 2026-04-23 04:51 | -15.97928 | -72.38604 | 34924 ft | 452 kts | 122° |
| 2026-04-23 04:51 | -15.99715 | -72.35895 | 34565 ft | 455 kts | 122° |
| 2026-04-23 04:52 | -16.01490 | -72.33203 | 34202 ft | 456 kts | 122° |
| 2026-04-23 04:52 | -16.03291 | -72.30473 | 33810 ft | 457 kts | 122° |
| 2026-04-23 04:52 | -16.05090 | -72.27739 | 33407 ft | 457 kts | 122° |
| 2026-04-23 04:52 | -16.06873 | -72.25031 | 32975 ft | 457 kts | 123° |
| 2026-04-23 04:53 | -16.08668 | -72.22306 | 32558 ft | 459 kts | 123° |
| 2026-04-23 04:53 | -16.10477 | -72.19558 | 32142 ft | 459 kts | 123° |
| 2026-04-23 04:53 | -16.12298 | -72.16788 | 31709 ft | 460 kts | 123° |
| 2026-04-23 04:53 | -16.14106 | -72.14040 | 31269 ft | 461 kts | 123° |
| 2026-04-23 04:54 | -16.15914 | -72.11290 | 30821 ft | 462 kts | 123° |
| 2026-04-23 04:54 | -16.17716 | -72.08546 | 30379 ft | 462 kts | 123° |
| 2026-04-23 04:54 | -16.19536 | -72.05775 | 29936 ft | 463 kts | 123° |
| 2026-04-23 04:54 | -16.21338 | -72.03022 | 29496 ft | 464 kts | 123° |
| 2026-04-23 04:55 | -16.23154 | -72.00252 | 29073 ft | 464 kts | 124° |
| 2026-04-23 04:55 | -16.24980 | -71.97468 | 28620 ft | 465 kts | 124° |
| 2026-04-23 04:55 | -16.26769 | -71.94741 | 28106 ft | 454 kts | 124° |
| 2026-04-23 04:55 | -16.28535 | -71.92050 | 27451 ft | 446 kts | 124° |
| 2026-04-23 04:56 | -16.30254 | -71.89426 | 27162 ft | 429 kts | 124° |
| 2026-04-23 04:56 | -16.31893 | -71.86923 | 26954 ft | 408 kts | 124° |
| 2026-04-23 04:56 | -16.33591 | -71.84650 | 26579 ft | 391 kts | 137° |
| 2026-04-23 04:56 | -16.35798 | -71.83091 | 26053 ft | 375 kts | 159° |
| 2026-04-23 04:57 | -16.38244 | -71.82459 | 25590 ft | 362 kts | 179° |
| 2026-04-23 04:57 | -16.40734 | -71.82743 | 24928 ft | 357 kts | 200° |
| 2026-04-23 04:57 | -16.42899 | -71.83913 | 24268 ft | 350 kts | 223° |
| 2026-04-23 04:57 | -16.44440 | -71.85785 | 23761 ft | 338 kts | 244° |
| 2026-04-23 04:58 | -16.45178 | -71.88072 | 23136 ft | 332 kts | 266° |
| 2026-04-23 04:58 | -16.45068 | -71.90428 | 22554 ft | 326 kts | 279° |
| 2026-04-23 04:58 | -16.44815 | -71.92764 | 22045 ft | 323 kts | 277° |
| 2026-04-23 04:58 | -16.44615 | -71.95072 | 21446 ft | 323 kts | 276° |
| 2026-04-23 04:59 | -16.44328 | -71.97356 | 20973 ft | 317 kts | 289° |
| 2026-04-23 04:59 | -16.43292 | -71.99320 | 20633 ft | 304 kts | 314° |
| 2026-04-23 04:59 | -16.41640 | -72.00574 | 20375 ft | 292 kts | 338° |
| 2026-04-23 04:59 | -16.39675 | -72.00932 | 20167 ft | 280 kts | 5° |
| 2026-04-23 05:00 | -16.37862 | -72.00346 | 20024 ft | 268 kts | 32° |
| 2026-04-23 05:00 | -16.36588 | -71.99003 | 19887 ft | 259 kts | 62° |
| 2026-04-23 05:00 | -16.36029 | -71.97231 | 19812 ft | 261 kts | 67° |
| 2026-04-23 05:00 | -16.35233 | -71.95544 | 19803 ft | 260 kts | 60° |
| 2026-04-23 05:01 | -16.34392 | -71.93884 | 19776 ft | 263 kts | 60° |
| 2026-04-23 05:01 | -16.33536 | -71.92188 | 19744 ft | 266 kts | 60° |
| 2026-04-23 05:01 | -16.32765 | -71.90426 | 19691 ft | 270 kts | 76° |
| 2026-04-23 05:01 | -16.32551 | -71.88488 | 19696 ft | 273 kts | 87° |
| 2026-04-23 05:02 | -16.32543 | -71.86512 | 19643 ft | 277 kts | 89° |
| 2026-04-23 05:02 | -16.32595 | -71.84490 | 19502 ft | 278 kts | 91° |
| 2026-04-23 05:02 | -16.32690 | -71.82471 | 18771 ft | 287 kts | 91° |
| 2026-04-23 05:02 | -16.32802 | -71.80388 | 17921 ft | 297 kts | 92° |
| 2026-04-23 05:03 | -16.32912 | -71.78219 | 17200 ft | 294 kts | 91° |
| 2026-04-23 05:03 | -16.32982 | -71.76251 | 17044 ft | 252 kts | 91° |
| 2026-04-23 05:03 | -16.33028 | -71.74698 | 17498 ft | 185 kts | 89° |
| 2026-04-23 05:03 | -16.33170 | -71.73360 | 16657 ft | 205 kts | 108° |
| 2026-04-23 05:04 | -16.33986 | -71.72172 | 15943 ft | 197 kts | 141° |
| 2026-04-23 05:04 | -16.35166 | -71.71608 | 15420 ft | 187 kts | 169° |
| 2026-04-23 05:04 | -16.36436 | -71.71696 | 14752 ft | 186 kts | 200° |
| 2026-04-23 05:04 | -16.37496 | -71.72410 | 14087 ft | 185 kts | 227° |
| 2026-04-23 05:05 | -16.38143 | -71.73547 | 13385 ft | 185 kts | 256° |
| 2026-04-23 05:05 | -16.38112 | -71.74841 | 12677 ft | 182 kts | 292° |
| 2026-04-23 05:05 | -16.37336 | -71.75806 | 12031 ft | 177 kts | 334° |
| 2026-04-23 05:05 | -16.36163 | -71.75930 | 11914 ft | 168 kts | 19° |
| 2026-04-23 05:06 | -16.35255 | -71.75207 | 11966 ft | 165 kts | 58° |
| 2026-04-23 05:06 | -16.34763 | -71.74104 | 11784 ft | 168 kts | 65° |
| 2026-04-23 05:06 | -16.34215 | -71.73027 | 11497 ft | 171 kts | 59° |
| 2026-04-23 05:06 | -16.33645 | -71.71971 | 11299 ft | 164 kts | 66° |
| 2026-04-23 05:07 | -16.33311 | -71.70848 | 11073 ft | 164 kts | 80° |
| 2026-04-23 05:07 | -16.33268 | -71.69654 | 10736 ft | 167 kts | 94° |
| 2026-04-23 05:07 | -16.33424 | -71.68447 | 10279 ft | 169 kts | 100° |
| 2026-04-23 05:07 | -16.33649 | -71.67270 | 9737 ft | 169 kts | 102° |
| 2026-04-23 05:08 | -16.33901 | -71.66090 | 9201 ft | 165 kts | 99° |
| 2026-04-23 05:08 | -16.33866 | -71.64945 | 9111 ft | 160 kts | 77° |
| 2026-04-23 05:08 | -16.33716 | -71.63787 | 9268 ft | 161 kts | 92° |
| 2026-04-23 05:08 | -16.33791 | -71.62657 | 9033 ft | 152 kts | 94° |
| 2026-04-23 05:09 | -16.33850 | -71.61563 | 8900 ft | 153 kts | 93° |
| 2026-04-23 05:09 | -16.33889 | -71.60442 | 8732 ft | 157 kts | 92° |
| 2026-04-23 05:09 | -16.33948 | -71.59300 | 8524 ft | 157 kts | 93° |
| 2026-04-23 05:09 | -16.34002 | -71.58181 | 8347 ft | 154 kts | 93° |
| 2026-04-23 05:10 | -16.34054 | -71.57175 | 8403 ft | 119 kts | 93° |
| 2026-04-23 05:10 | -16.34089 | -71.56507 | 8442 ft | 64 kts | 93° |
| 2026-04-23 05:10 | -16.34097 | -71.56342 | 8447 ft | 0 kts | 91° |